Time;durP1;ratioP1;P1;durP2;ratioP2;P2;SDS_P1;SDS_P2;PMS_P1;PMS_P2;Temp;Humidity;BMP_temperature;BMP_pressure;BME280_temperature;BME280_humidity;BME280_pressure;Samples;Min_cycle;Max_cycle;Signal;HPM_P1;HPM_P2
2022/03/13 00:00:26;;;;;;;7.45;3.15;;;;;;;9.53;48.63;100242.63;5035145;28;20467;-80
2022/03/13 00:02:55;;;;;;;8.32;3.35;;;;;;;9.47;48.36;100235.38;5034455;28;20068;-81
2022/03/13 00:05:22;;;;;;;11.38;3.85;;;;;;;9.44;48.16;100224.19;5034495;28;20144;-80
2022/03/13 00:07:48;;;;;;;10.10;4.22;;;;;;;9.46;48.32;100230.22;5035087;28;20042;-80
2022/03/13 00:10:19;;;;;;;7.40;3.38;;;;;;;9.42;48.11;100231.63;5034306;28;20033;-78
2022/03/13 00:12:46;;;;;;;9.68;3.85;;;;;;;9.37;48.69;100230.38;5035073;28;20087;-79
2022/03/13 00:15:12;;;;;;;8.40;3.83;;;;;;;9.24;49.18;100229.50;5034160;28;20036;-78
2022/03/13 00:17:38;;;;;;;7.82;3.33;;;;;;;9.27;49.18;100232.63;5034160;28;20040;-80
2022/03/13 00:20:05;;;;;;;9.40;3.42;;;;;;;9.26;48.65;100235.50;5035552;28;20033;-80
2022/03/13 00:22:33;;;;;;;7.60;3.63;;;;;;;9.32;48.90;100234.69;5035698;28;20033;-80
2022/03/13 00:25:05;;;;;;;8.02;3.00;;;;;;;9.16;49.03;100238.56;5035054;28;20469;-81
2022/03/13 00:27:31;;;;;;;8.70;3.13;;;;;;;9.42;48.60;100231.63;5035354;28;20113;-79
2022/03/13 00:29:59;;;;;;;7.63;3.55;;;;;;;9.29;48.56;100232.44;5035253;28;20117;-79
2022/03/13 00:32:25;;;;;;;9.52;3.45;;;;;;;9.52;47.73;100232.91;5034838;28;20042;-79
2022/03/13 00:34:51;;;;;;;8.65;3.65;;;;;;;9.42;48.11;100226.25;5035008;28;20041;-79
2022/03/13 00:37:17;;;;;;;7.63;3.50;;;;;;;9.19;48.46;100232.78;5035036;28;20510;-79
2022/03/13 00:39:44;;;;;;;8.32;3.20;;;;;;;9.44;47.36;100226.88;5035283;28;20033;-79
2022/03/13 00:42:12;;;;;;;7.57;3.08;;;;;;;9.46;47.38;100224.84;5035232;28;20045;-77
2022/03/13 00:44:37;;;;;;;7.65;3.25;;;;;;;9.39;46.88;100233.69;5035738;28;20033;-79
2022/03/13 00:47:05;;;;;;;7.47;3.72;;;;;;;9.34;47.32;100229.94;5034748;28;20033;-78
2022/03/13 00:49:30;;;;;;;5.78;2.83;;;;;;;9.20;47.21;100228.25;5035432;28;20499;-80
2022/03/13 00:51:57;;;;;;;9.38;3.22;;;;;;;9.35;46.77;100231.59;5034602;28;20030;-79
2022/03/13 00:54:22;;;;;;;8.63;3.30;;;;;;;9.33;46.36;100226.44;5034939;28;20030;-78
2022/03/13 00:56:48;;;;;;;8.50;3.27;;;;;;;9.22;46.53;100220.81;5034833;28;20036;-80
2022/03/13 00:59:13;;;;;;;8.13;3.13;;;;;;;9.33;46.07;100222.91;5034689;28;20416;-80
2022/03/13 01:01:38;;;;;;;6.33;2.87;;;;;;;9.28;45.75;100218.16;5034465;28;20029;-77
2022/03/13 01:04:05;;;;;;;7.77;3.07;;;;;;;9.25;45.62;100221.25;5034317;28;20064;-79
2022/03/13 01:06:32;;;;;;;8.50;3.20;;;;;;;9.21;45.58;100217.28;5034185;28;20080;-79
2022/03/13 01:08:58;;;;;;;10.18;3.28;;;;;;;9.20;45.74;100212.94;5034452;28;20029;-77
2022/03/13 01:11:23;;;;;;;7.30;3.23;;;;;;;9.34;44.84;100200.38;5035019;28;20365;-80
2022/03/13 01:13:50;;;;;;;9.32;3.40;;;;;;;9.34;44.31;100197.69;5034723;28;20029;-79
2022/03/13 01:16:34;;;;;;;10.05;3.45;;;;;;;9.27;44.74;100197.69;5033074;28;20440;-78
2022/03/13 01:18:59;;;;;;;8.13;3.63;;;;;;;9.02;44.87;100201.91;5034748;28;20275;-78
2022/03/13 01:21:26;;;;;;;7.97;2.78;;;;;;;9.16;44.80;100200.09;5033254;28;20065;-80
2022/03/13 01:24:01;;;;;;;7.30;2.95;;;;;;;9.40;45.11;100196.88;5034241;28;20056;-80
2022/03/13 01:26:26;;;;;;;6.25;2.85;;;;;;;9.34;45.10;100185.06;5034515;28;20057;-80
2022/03/13 01:28:56;;;;;;;9.03;3.30;;;;;;;9.19;45.94;100184.41;5034402;28;20065;-80
2022/03/13 01:31:24;;;;;;;11.30;2.80;;;;;;;9.25;45.53;100191.66;5034547;28;20059;-80
2022/03/13 01:33:49;;;;;;;8.10;3.20;;;;;;;9.30;46.25;100183.00;5034134;28;20360;-79
2022/03/13 01:36:14;;;;;;;7.85;3.35;;;;;;;9.20;46.04;100179.84;5034613;28;20033;-80
2022/03/13 01:38:40;;;;;;;7.63;2.80;;;;;;;9.26;45.86;100177.19;5034904;28;20065;-82
2022/03/13 01:41:06;;;;;;;6.60;3.10;;;;;;;9.12;46.07;100175.50;5034497;28;20026;-78
2022/03/13 01:43:32;;;;;;;;;;;;;;;9.02;45.90;100173.19;5036968;28;20045;-79
2022/03/13 01:45:58;;;;;;;9.68;3.25;;;;;;;8.94;45.41;100172.53;5040729;28;19958;-82
2022/03/13 01:48:25;;;;;;;9.98;3.70;;;;;;;8.90;45.13;100165.91;5042119;28;20021;-80
2022/03/13 01:50:50;;;;;;;6.25;2.70;;;;;;;8.87;44.94;100160.91;5038914;28;20045;-79
2022/03/13 01:53:16;;;;;;;8.13;3.95;;;;;;;8.85;44.22;100149.53;5038057;28;20056;-79
2022/03/13 01:55:42;;;;;;;10.43;3.20;;;;;;;8.74;44.24;100142.91;5037165;28;20042;-80
2022/03/13 01:58:07;;;;;;;7.17;3.27;;;;;;;8.65;43.98;100144.06;5037309;28;20036;-79
2022/03/13 02:00:32;;;;;;;7.77;3.33;;;;;;;8.59;44.35;100128.78;5038676;28;20365;-80
2022/03/13 02:02:58;;;;;;;11.10;3.67;;;;;;;8.60;43.92;100131.22;5040004;28;20388;-79
2022/03/13 02:05:32;;;;;;;9.15;3.35;;;;;;;8.62;44.11;100128.34;5039832;28;20048;-81
2022/03/13 02:08:00;;;;;;;7.82;3.08;;;;;;;8.58;43.79;100122.56;5039967;28;20072;-80
2022/03/13 02:10:26;;;;;;;7.70;3.25;;;;;;;8.56;43.62;100127.31;5042565;28;20029;-79
2022/03/13 02:12:52;;;;;;;11.77;2.83;;;;;;;8.63;43.17;100125.47;5037315;28;20488;-79
2022/03/13 02:15:18;;;;;;;7.47;2.80;;;;;;;8.55;43.46;100132.88;5037379;28;20037;-79
2022/03/13 02:17:43;;;;;;;7.50;3.50;;;;;;;8.53;42.94;100124.19;5037670;28;20032;-79
2022/03/13 02:20:22;;;;;;;8.55;2.88;;;;;;;8.57;42.42;100118.22;5037419;28;20236;-79
2022/03/13 02:22:50;;;;;;;7.25;2.85;;;;;;;8.61;41.87;100122.16;5037212;28;20030;-80
2022/03/13 02:25:22;;;;;;;7.25;2.75;;;;;;;8.40;42.67;100113.38;5036296;28;20402;-80
2022/03/13 02:27:48;;;;;;;7.30;2.95;;;;;;;8.38;42.49;100113.59;5037205;28;20463;-80
2022/03/13 02:30:13;;;;;;;8.93;3.83;;;;;;;8.37;42.02;100114.59;5035826;28;20026;-82
2022/03/13 02:32:39;;;;;;;8.05;2.55;;;;;;;8.32;42.62;100106.31;5036798;28;20644;-80
2022/03/13 02:35:04;;;;;;;8.55;3.47;;;;;;;8.33;42.07;100110.66;5036525;28;20380;-80
2022/03/13 02:37:41;;;;;;;8.77;3.17;;;;;;;8.24;42.51;100114.50;5036277;28;20052;-79
2022/03/13 02:40:13;;;;;;;9.07;3.38;;;;;;;8.23;40.85;100102.94;5037023;28;20033;-79
2022/03/13 02:42:38;;;;;;;7.30;2.88;;;;;;;8.23;41.14;100100.25;5036911;28;20033;-79
2022/03/13 02:45:04;;;;;;;8.67;3.37;;;;;;;8.17;41.11;100095.66;5036430;28;20029;-79
2022/03/13 02:47:29;;;;;;;9.90;3.40;;;;;;;8.22;40.62;100090.53;5036314;28;20033;-80
2022/03/13 02:49:55;;;;;;;10.17;3.03;;;;;;;8.07;40.95;100097.03;5034607;28;20475;-79
2022/03/13 02:52:20;;;;;;;7.70;3.50;;;;;;;7.99;40.16;100095.34;5036571;28;20112;-79
2022/03/13 02:54:46;;;;;;;8.73;3.50;;;;;;;7.91;40.14;100090.94;5036372;28;20116;-79
2022/03/13 02:57:14;;;;;;;8.27;3.00;;;;;;;8.01;39.50;100088.75;5036042;28;20031;-78
2022/03/13 02:59:41;;;;;;;7.40;3.08;;;;;;;8.06;39.07;100084.66;5036619;28;20029;-79
2022/03/13 03:02:07;;;;;;;9.55;3.47;;;;;;;8.06;39.09;100082.78;5036205;28;20055;-78
2022/03/13 03:04:32;;;;;;;7.93;3.47;;;;;;;8.05;38.95;100091.06;5036092;28;20033;-81
2022/03/13 03:07:03;;;;;;;8.20;3.13;;;;;;;8.10;38.44;100086.72;5035821;28;20062;-79
2022/03/13 03:09:30;;;;;;;8.32;3.38;;;;;;;8.09;38.13;100089.63;5036342;28;20465;-78
2022/03/13 03:11:57;;;;;;;8.85;3.13;;;;;;;8.12;38.52;100089.22;5036243;28;20056;-78
2022/03/13 03:14:23;;;;;;;8.55;2.75;;;;;;;8.09;38.79;100089.63;5035834;28;20123;-79
2022/03/13 03:16:49;;;;;;;9.07;3.20;;;;;;;8.07;38.27;100092.50;5036049;28;20090;-77
2022/03/13 03:19:15;;;;;;;13.98;4.38;;;;;;;8.09;38.18;100094.97;5036573;28;20037;-79
2022/03/13 03:21:41;;;;;;;;;;;;;;;8.02;38.29;100098.47;5037215;28;20092;-85
2022/03/13 03:24:17;;;;;;;9.98;3.20;;;;;;;8.06;37.86;100098.09;5035092;28;19952;-78
2022/03/13 03:26:42;;;;;;;7.10;2.90;;;;;;;8.05;37.83;100093.75;5036464;28;20033;-81
2022/03/13 03:29:08;;;;;;;7.15;3.00;;;;;;;8.10;37.72;100093.94;5034819;28;20364;-79
2022/03/13 03:31:39;;;;;;;8.97;3.27;;;;;;;8.16;37.71;100091.31;5034892;28;20457;-80
2022/03/13 03:34:07;;;;;;;11.45;3.42;;;;;;;8.20;37.38;100089.09;5034499;28;20272;-79
2022/03/13 03:36:33;;;;;;;9.48;3.40;;;;;;;8.08;37.85;100086.09;5036483;28;20543;-82
2022/03/13 03:38:58;;;;;;;7.40;3.45;;;;;;;8.26;36.84;100091.78;5035625;28;20034;-80
2022/03/13 03:41:24;;;;;;;8.70;3.53;;;;;;;8.25;37.44;100089.28;5034832;28;20035;-80
2022/03/13 03:43:49;;;;;;;8.40;3.50;;;;;;;8.19;36.63;100085.56;5035783;28;20087;-80
2022/03/13 03:46:16;;;;;;;6.60;2.57;;;;;;;8.20;36.79;100078.34;5034934;28;20063;-81
2022/03/13 03:48:42;;;;;;;9.90;3.65;;;;;;;8.12;37.42;100075.81;5036891;28;20029;-80
2022/03/13 03:51:07;;;;;;;9.37;3.27;;;;;;;8.28;36.34;100075.47;5036114;28;20037;-80
2022/03/13 03:53:32;;;;;;;20.67;3.87;;;;;;;8.27;36.48;100076.50;5036090;28;20033;-81
2022/03/13 03:55:58;;;;;;;8.13;3.10;;;;;;;8.25;36.21;100084.75;5035432;28;20044;-80
2022/03/13 03:58:23;;;;;;;8.00;3.30;;;;;;;8.25;36.04;100079.38;5035701;28;20021;-79
2022/03/13 04:00:49;;;;;;;7.50;3.13;;;;;;;8.37;36.04;100081.56;5035113;28;20048;-80
2022/03/13 04:03:14;;;;;;;8.10;3.23;;;;;;;8.28;36.30;100076.31;5035481;28;20487;-81
2022/03/13 04:05:40;;;;;;;8.68;3.55;;;;;;;8.29;35.88;100075.28;5034246;28;20033;-79
2022/03/13 04:08:05;;;;;;;9.93;3.73;;;;;;;8.21;35.81;100069.28;5035480;28;20041;-80
2022/03/13 04:10:30;;;;;;;10.02;3.22;;;;;;;8.18;36.23;100073.16;5034984;28;20075;-79
2022/03/13 04:12:56;;;;;;;9.67;3.87;;;;;;;8.07;36.49;100072.88;5035436;28;20430;-79
2022/03/13 04:15:23;;;;;;;13.07;3.27;;;;;;;8.01;36.17;100072.66;5035127;28;20452;-80
2022/03/13 04:17:48;;;;;;;7.03;3.25;;;;;;;7.95;36.84;100069.94;5035489;28;20435;-79
2022/03/13 04:20:13;;;;;;;9.40;3.17;;;;;;;8.04;36.79;100071.44;5035618;28;20030;-81
2022/03/13 04:22:39;;;;;;;8.18;2.92;;;;;;;8.05;36.52;100067.75;5035457;28;20192;-80
2022/03/13 04:25:05;;;;;;;7.73;3.00;;;;;;;8.12;36.66;100067.75;5035555;28;20087;-79
2022/03/13 04:27:31;;;;;;;;;;;;;;;8.00;35.91;100059.44;5035528;28;20036;-79
2022/03/13 04:29:57;;;;;;;13.52;4.38;;;;;;;7.85;36.14;100062.25;5034903;28;19916;-80
2022/03/13 04:32:23;;;;;;;8.20;3.33;;;;;;;7.83;36.24;100064.28;5034958;28;20026;-79
2022/03/13 04:34:49;;;;;;;6.43;2.70;;;;;;;7.81;35.91;100065.50;5036094;28;20060;-78
2022/03/13 04:37:16;;;;;;;8.05;3.58;;;;;;;7.73;35.99;100071.00;5036764;28;20018;-80
2022/03/13 04:39:41;;;;;;;;;;;;;;;7.76;36.08;100073.28;5037858;28;20037;-79
2022/03/13 04:42:07;;;;;;;7.80;3.78;;;;;;;7.75;35.72;100077.81;5037780;28;19964;-79
2022/03/13 04:44:33;;;;;;;7.97;3.15;;;;;;;7.71;36.32;100075.72;5038258;28;20460;-80
2022/03/13 04:46:59;;;;;;;9.35;3.53;;;;;;;7.83;35.83;100072.34;5041604;28;20121;-78
2022/03/13 04:49:25;;;;;;;8.93;3.28;;;;;;;7.88;35.94;100071.75;5040940;28;20468;-79
2022/03/13 04:51:50;;;;;;;9.67;3.53;;;;;;;7.89;35.54;100076.91;5043956;28;20061;-78
2022/03/13 04:54:17;;;;;;;7.47;3.10;;;;;;;7.92;35.57;100087.25;5036613;28;20025;-80
2022/03/13 04:56:44;;;;;;;9.07;3.28;;;;;;;7.87;35.60;100076.28;5034499;28;20033;-78
2022/03/13 04:59:10;;;;;;;10.68;3.70;;;;;;;7.76;35.70;100084.03;5037706;28;20056;-80
2022/03/13 05:01:36;;;;;;;9.35;3.10;;;;;;;7.82;35.56;100075.22;5036876;28;20037;-79
2022/03/13 05:04:01;;;;;;;8.93;3.83;;;;;;;7.80;35.35;100079.94;5036064;28;20456;-79
2022/03/13 05:06:27;;;;;;;10.15;3.70;;;;;;;7.78;35.92;100082.81;5035299;28;20288;-79
2022/03/13 05:08:53;;;;;;;7.75;3.75;;;;;;;7.87;35.31;100078.13;5036509;28;20037;-79
2022/03/13 05:11:19;;;;;;;7.88;3.03;;;;;;;7.88;34.89;100077.91;5035771;28;20033;-78
2022/03/13 05:13:44;;;;;;;8.05;3.28;;;;;;;7.89;34.70;100076.06;5037847;28;20435;-78
2022/03/13 05:16:09;;;;;;;9.93;4.22;;;;;;;7.90;34.69;100067.81;5037784;28;20061;-80
2022/03/13 05:18:35;;;;;;;7.10;3.13;;;;;;;7.84;35.08;100075.84;5041028;28;20116;-82
2022/03/13 05:21:01;;;;;;;8.20;3.67;;;;;;;7.80;35.37;100085.31;5042271;28;20411;-79
2022/03/13 05:23:27;;;;;;;8.05;2.72;;;;;;;7.81;34.91;100079.75;5038392;28;20507;-76
2022/03/13 05:25:52;;;;;;;9.05;3.42;;;;;;;7.84;34.34;100084.72;5037724;28;20543;-78
2022/03/13 05:28:17;;;;;;;7.17;3.07;;;;;;;7.77;35.16;100078.47;5037470;28;20391;-78
2022/03/13 05:30:43;;;;;;;7.03;3.20;;;;;;;7.62;35.63;100078.56;5037592;28;20033;-80
2022/03/13 05:33:08;;;;;;;7.45;3.38;;;;;;;7.56;35.57;100075.81;5036235;28;20057;-79
2022/03/13 05:35:34;;;;;;;9.38;3.78;;;;;;;7.53;35.28;100073.53;5037153;28;20046;-80
2022/03/13 05:38:00;;;;;;;8.82;3.35;;;;;;;7.49;34.99;100070.41;5037681;28;20048;-78
2022/03/13 05:40:26;;;;;;;9.73;3.45;;;;;;;7.39;35.15;100075.25;5036673;28;20029;-78
2022/03/13 05:42:59;;;;;;;8.00;3.25;;;;;;;7.41;35.58;100078.59;5036955;28;20212;-78
2022/03/13 05:45:27;;;;;;;8.93;3.40;;;;;;;7.35;35.40;100091.91;5036629;28;20041;-77
2022/03/13 05:47:58;;;;;;;8.55;3.70;;;;;;;7.46;35.33;100075.34;5036632;28;20029;-78
2022/03/13 05:50:26;;;;;;;9.25;3.53;;;;;;;7.34;35.54;100071.53;5035400;28;20025;-78
2022/03/13 05:52:56;;;;;;;8.07;3.08;;;;;;;7.23;36.05;100076.34;5036965;28;20036;-78
2022/03/13 05:55:23;;;;;;;7.65;3.45;;;;;;;7.23;36.02;100073.69;5036547;28;20048;-78
2022/03/13 05:57:48;;;;;;;9.13;3.85;;;;;;;7.37;35.33;100079.97;5037383;28;20041;-79
2022/03/13 06:00:15;;;;;;;8.87;3.53;;;;;;;7.26;35.72;100077.84;5037651;28;20026;-79
2022/03/13 06:02:42;;;;;;;6.43;2.80;;;;;;;7.29;35.79;100077.44;5037069;28;20608;-77
2022/03/13 06:05:09;;;;;;;12.00;3.85;;;;;;;7.39;35.34;100077.94;5036849;28;20059;-79
2022/03/13 06:07:35;;;;;;;7.80;2.78;;;;;;;7.55;34.67;100079.53;5037109;28;20053;-79
2022/03/13 06:10:04;;;;;;;6.25;2.75;;;;;;;7.62;34.54;100077.72;5036578;28;20511;-79
2022/03/13 06:12:30;;;;;;;8.68;3.15;;;;;;;7.62;34.35;100077.72;5036486;28;20087;-78
2022/03/13 06:15:00;;;;;;;9.85;3.90;;;;;;;7.67;33.74;100083.34;5036135;28;20112;-78
2022/03/13 06:17:26;;;;;;;8.95;3.70;;;;;;;7.77;34.12;100078.47;5036152;28;20033;-78
2022/03/13 06:19:53;;;;;;;7.25;3.67;;;;;;;7.77;34.09;100064.22;5036386;28;20025;-78
2022/03/13 06:22:19;;;;;;;6.63;3.08;;;;;;;7.80;33.70;100062.00;5036761;28;20472;-78
2022/03/13 06:24:45;;;;;;;7.70;3.65;;;;;;;7.92;33.79;100068.47;5036795;28;20063;-79
2022/03/13 06:27:11;;;;;;;8.43;3.20;;;;;;;7.94;33.76;100069.09;5036855;28;20041;-79
2022/03/13 06:29:38;;;;;;;7.13;2.85;;;;;;;7.89;33.76;100073.38;5035803;28;20388;-77
2022/03/13 06:32:04;;;;;;;7.70;3.00;;;;;;;7.94;33.39;100071.78;5036317;28;20090;-77
2022/03/13 06:34:29;;;;;;;9.90;3.60;;;;;;;7.96;33.65;100068.91;5036484;28;20036;-79
2022/03/13 06:36:55;;;;;;;9.20;4.07;;;;;;;8.01;33.76;100083.41;5035898;28;20037;-78
2022/03/13 06:39:21;;;;;;;10.50;4.03;;;;;;;8.10;33.82;100069.81;5036961;28;20033;-78
2022/03/13 06:41:46;;;;;;;7.47;3.13;;;;;;;8.11;33.95;100074.16;5036916;28;20479;-78
2022/03/13 06:44:12;;;;;;;7.37;3.37;;;;;;;8.18;33.89;100077.72;5037147;28;20236;-77
2022/03/13 06:46:37;;;;;;;8.13;3.50;;;;;;;8.18;34.12;100072.34;5036111;28;20028;-78
2022/03/13 06:49:05;;;;;;;9.83;3.37;;;;;;;8.17;33.54;100081.41;5035187;28;20460;-78
2022/03/13 06:51:30;;;;;;;9.07;3.10;;;;;;;8.23;33.67;100080.63;5036485;28;20112;-77
2022/03/13 06:53:56;;;;;;;11.23;3.47;;;;;;;8.29;33.67;100091.41;5036778;28;20109;-78
2022/03/13 06:56:22;;;;;;;8.25;3.17;;;;;;;8.26;33.46;100091.78;5035583;28;20029;-76
2022/03/13 06:58:47;;;;;;;9.52;3.85;;;;;;;8.29;33.74;100086.03;5035128;28;20045;-78
2022/03/13 07:01:12;;;;;;;8.93;3.50;;;;;;;8.45;33.36;100095.63;5035002;28;20038;-79
2022/03/13 07:03:38;;;;;;;9.40;3.27;;;;;;;8.40;34.24;100098.09;5034950;28;20037;-77
2022/03/13 07:06:04;;;;;;;7.77;3.40;;;;;;;8.46;33.33;100099.16;5034714;28;20041;-77
2022/03/13 07:08:32;;;;;;;;;;;;;;;8.46;33.34;100101.84;5035212;28;20443;-76
2022/03/13 07:10:59;;;;;;;7.70;3.20;;;;;;;8.43;33.84;100100.38;5034498;28;20364;-78
2022/03/13 07:13:27;;;;;;;7.32;2.70;;;;;;;8.60;33.35;100096.31;5034644;28;20033;-77
2022/03/13 07:15:53;;;;;;;9.02;3.15;;;;;;;8.56;33.70;100100.47;5034714;28;20045;-76
2022/03/13 07:18:19;;;;;;;7.57;3.53;;;;;;;8.63;33.79;100095.09;5033416;28;20033;-77
2022/03/13 07:20:44;;;;;;;9.30;3.90;;;;;;;8.67;33.12;100094.50;5035177;28;20116;-79
2022/03/13 07:23:09;;;;;;;8.93;3.37;;;;;;;8.66;33.00;100100.06;5036447;28;20490;-77
2022/03/13 07:25:35;;;;;;;7.53;3.10;;;;;;;8.62;33.23;100094.25;5033149;28;20061;-77
2022/03/13 07:28:00;;;;;;;8.37;3.30;;;;;;;8.68;33.36;100103.41;5033378;28;20071;-77
2022/03/13 07:30:25;;;;;;;7.97;3.47;;;;;;;8.68;33.42;100096.16;5034654;28;20508;-78
2022/03/13 07:32:51;;;;;;;7.67;3.10;;;;;;;8.78;33.17;100105.72;5034372;28;20417;-77
2022/03/13 07:35:16;;;;;;;10.00;3.27;;;;;;;8.73;33.17;100100.09;5033903;28;20029;-77
2022/03/13 07:37:43;;;;;;;9.60;3.92;;;;;;;8.72;33.06;100104.66;5034912;28;20049;-77
2022/03/13 07:40:09;;;;;;;7.60;3.47;;;;;;;8.68;33.01;100100.69;5033597;28;20033;-77
2022/03/13 07:42:35;;;;;;;9.52;3.20;;;;;;;8.84;33.02;100099.53;5034300;28;20040;-77
2022/03/13 07:45:00;;;;;;;7.50;3.17;;;;;;;8.94;32.83;100099.97;5034500;28;20034;-77
2022/03/13 07:47:26;;;;;;;6.93;2.97;;;;;;;9.00;32.82;100104.53;5034024;28;20029;-77
2022/03/13 07:49:52;;;;;;;9.98;3.97;;;;;;;9.07;32.58;100100.00;5033880;28;20378;-76
2022/03/13 07:52:17;;;;;;;7.32;3.05;;;;;;;9.12;33.00;100097.56;5034106;28;20109;-76
2022/03/13 07:54:43;;;;;;;6.53;3.37;;;;;;;9.19;33.22;100094.88;5034005;28;20029;-76
2022/03/13 07:57:08;;;;;;;10.87;3.20;;;;;;;9.07;32.80;100088.44;5034369;28;20745;-76
2022/03/13 07:59:33;;;;;;;8.80;3.80;;;;;;;9.06;33.21;100092.97;5033904;28;20654;-76
2022/03/13 08:01:59;;;;;;;9.90;3.73;;;;;;;9.12;32.78;100092.19;5034148;28;20456;-76
2022/03/13 08:04:24;;;;;;;7.97;3.60;;;;;;;9.10;33.78;100094.25;5033699;28;20578;-77
2022/03/13 08:06:50;;;;;;;8.90;3.35;;;;;;;9.23;33.46;100086.19;5033778;28;20175;-77
2022/03/13 08:09:15;;;;;;;7.20;3.20;;;;;;;9.22;33.13;100092.59;5033910;28;20037;-77
2022/03/13 08:11:41;;;;;;;12.13;4.00;;;;;;;9.37;33.27;100082.47;5033846;28;20079;-77
2022/03/13 08:14:10;;;;;;;10.07;3.72;;;;;;;9.45;32.71;100084.16;5033400;28;20296;-76
2022/03/13 08:16:35;;;;;;;9.30;3.58;;;;;;;9.43;34.20;100078.16;5033736;28;20037;-78
2022/03/13 08:19:01;;;;;;;7.93;3.80;;;;;;;9.60;33.06;100089.34;5033751;28;20371;-77
2022/03/13 08:21:26;;;;;;;7.80;2.90;;;;;;;9.69;34.27;100088.06;5033249;28;20516;-77
2022/03/13 08:23:52;;;;;;;9.10;3.75;;;;;;;9.72;33.48;100093.88;5033543;28;20455;-76
2022/03/13 08:26:17;;;;;;;8.52;3.50;;;;;;;9.84;33.05;100090.59;5033682;28;20036;-77
2022/03/13 08:28:43;;;;;;;7.13;3.13;;;;;;;9.82;33.55;100089.97;5033360;28;20108;-77
2022/03/13 08:31:09;;;;;;;10.07;3.80;;;;;;;9.93;33.68;100092.84;5033416;28;20418;-77
2022/03/13 08:33:34;;;;;;;8.90;3.63;;;;;;;10.03;32.84;100085.16;5033466;28;20052;-76
2022/03/13 08:36:00;;;;;;;8.00;3.17;;;;;;;10.10;32.58;100095.91;5033540;28;20079;-79
2022/03/13 08:38:25;;;;;;;7.70;3.65;;;;;;;10.09;32.95;100095.09;5033629;28;20151;-77
2022/03/13 08:40:51;;;;;;;9.05;4.13;;;;;;;10.14;33.45;100089.09;5032198;28;20034;-77
2022/03/13 08:43:16;;;;;;;9.27;3.77;;;;;;;10.22;33.59;100091.56;5033678;28;20037;-77
2022/03/13 08:45:42;;;;;;;9.90;3.83;;;;;;;10.28;34.40;100096.13;5033175;28;20061;-78
2022/03/13 08:48:07;;;;;;;10.05;3.88;;;;;;;10.36;34.21;100087.81;5033479;28;20100;-77
2022/03/13 08:50:32;;;;;;;9.47;3.67;;;;;;;10.58;33.44;100085.66;5032995;28;20033;-76
2022/03/13 08:52:58;;;;;;;8.80;4.05;;;;;;;10.60;33.51;100088.97;5036327;28;20029;-77
2022/03/13 08:55:24;;;;;;;8.95;3.97;;;;;;;10.55;33.78;100086.09;5037146;28;20026;-77
2022/03/13 08:57:49;;;;;;;10.13;4.10;;;;;;;10.75;34.21;100086.00;5037370;28;20128;-77
2022/03/13 09:00:16;;;;;;;11.97;4.10;;;;;;;10.96;33.72;100087.56;5037378;28;20379;-78
2022/03/13 09:02:44;;;;;;;9.98;4.63;;;;;;;11.03;34.03;100075.72;5037132;28;20490;-77
2022/03/13 09:05:10;;;;;;;9.90;3.65;;;;;;;11.14;33.15;100079.56;5037349;28;20029;-77
2022/03/13 09:07:35;;;;;;;9.50;4.28;;;;;;;11.30;33.83;100079.06;5037111;28;20056;-77
2022/03/13 09:10:02;;;;;;;10.85;4.05;;;;;;;11.32;34.86;100076.13;5037264;28;20038;-77
2022/03/13 09:12:30;;;;;;;10.13;4.28;;;;;;;11.60;34.62;100075.75;5037708;28;20407;-78
2022/03/13 09:14:56;;;;;;;13.20;4.93;;;;;;;11.70;35.07;100071.50;5037174;28;20108;-77
2022/03/13 09:17:21;;;;;;;10.80;4.22;;;;;;;11.74;35.28;100072.72;5037406;28;20543;-78
2022/03/13 09:19:46;;;;;;;9.17;3.53;;;;;;;11.69;35.05;100066.31;5037604;28;20040;-77
2022/03/13 09:22:14;;;;;;;11.73;5.18;;;;;;;11.87;34.48;100071.78;5037175;28;20067;-77
2022/03/13 09:24:40;;;;;;;11.55;4.15;;;;;;;11.92;36.36;100068.44;5036996;28;20299;-76
2022/03/13 09:27:05;;;;;;;10.25;3.97;;;;;;;12.13;34.70;100068.84;5037059;28;20116;-77
2022/03/13 09:29:31;;;;;;;11.30;4.22;;;;;;;12.25;34.67;100068.09;5038430;28;20056;-77
2022/03/13 09:31:56;;;;;;;11.55;4.95;;;;;;;12.32;35.52;100069.69;5037978;28;20032;-76
2022/03/13 09:34:21;;;;;;;9.80;4.07;;;;;;;12.38;34.73;100073.34;5036467;28;20033;-77
2022/03/13 09:36:47;;;;;;;8.60;3.80;;;;;;;12.54;36.60;100080.84;5035688;28;20029;-78
2022/03/13 09:39:12;;;;;;;11.10;4.37;;;;;;;12.77;36.93;100080.97;5035589;28;20670;-76
2022/03/13 09:41:38;;;;;;;10.55;4.38;;;;;;;12.62;38.03;100079.72;5036704;28;20029;-79
2022/03/13 09:44:07;;;;;;;11.35;4.18;;;;;;;12.75;37.83;100072.25;5036841;28;20067;-77
2022/03/13 09:46:36;;;;;;;9.20;4.63;;;;;;;12.72;38.37;100074.63;5036396;28;20037;-76
2022/03/13 09:49:02;;;;;;;11.27;4.68;;;;;;;12.56;38.30;100078.75;5036745;28;20452;-77
2022/03/13 09:51:28;;;;;;;8.77;4.03;;;;;;;12.58;38.82;100076.63;5036191;28;20434;-77
2022/03/13 09:53:53;;;;;;;11.88;4.40;;;;;;;12.73;38.36;100077.06;5036215;28;20029;-77
2022/03/13 09:56:19;;;;;;;9.98;4.28;;;;;;;12.85;39.04;100072.56;5036372;28;20044;-76
2022/03/13 09:58:45;;;;;;;8.60;3.67;;;;;;;12.80;39.00;100072.41;5036359;28;20034;-76
2022/03/13 10:01:10;;;;;;;;;;;;;;;12.81;39.00;100068.66;5036770;28;20025;-76
2022/03/13 10:03:36;;;;;;;9.90;4.10;;;;;;;12.78;39.83;100061.00;5035280;28;19935;-76
2022/03/13 10:06:02;;;;;;;9.88;3.88;;;;;;;12.78;39.23;100062.88;5034678;28;20065;-76
2022/03/13 10:08:30;;;;;;;8.43;3.72;;;;;;;12.77;39.22;100058.53;5036381;28;20029;-76
2022/03/13 10:10:56;;;;;;;10.00;3.97;;;;;;;12.89;38.66;100064.84;5036389;28;20029;-76
2022/03/13 10:13:37;;;;;;;10.82;4.22;;;;;;;13.04;38.99;100057.13;5036275;28;20029;-78
2022/03/13 10:16:15;;;;;;;10.65;4.45;;;;;;;12.99;39.42;100059.69;5036320;28;20380;-76
2022/03/13 10:18:40;;;;;;;10.00;3.90;;;;;;;13.09;39.14;100054.53;5036459;28;20122;-77
2022/03/13 10:21:08;;;;;;;11.55;4.22;;;;;;;13.10;39.01;100060.78;5035934;28;20112;-77
2022/03/13 10:23:34;;;;;;;7.88;3.25;;;;;;;13.07;39.68;100050.44;5034530;28;20502;-76
2022/03/13 10:26:00;;;;;;;12.55;4.15;;;;;;;13.27;39.37;100050.16;5035841;28;20075;-77
2022/03/13 10:28:30;;;;;;;10.53;4.37;;;;;;;13.25;39.51;100058.53;5035734;28;20034;-77
2022/03/13 10:30:59;;;;;;;7.85;3.58;;;;;;;13.52;40.33;100058.91;5034889;28;20272;-77
2022/03/13 10:33:47;;;;;;;9.68;3.88;;;;;;;13.61;39.38;100056.72;5035713;28;20064;-76
2022/03/13 10:36:17;;;;;;;10.07;3.72;;;;;;;13.57;40.15;100052.81;5024888;28;20037;-77
2022/03/13 10:38:44;;;;;;;8.98;3.58;;;;;;;13.80;39.78;100050.09;5035366;28;20026;-77
2022/03/13 10:41:12;;;;;;;8.40;4.05;;;;;;;13.79;40.34;100051.19;5035675;28;20029;-78
2022/03/13 10:43:55;;;;;;;8.55;3.70;;;;;;;13.97;39.87;100051.06;5035349;28;20042;-77
2022/03/13 10:46:28;;;;;;;9.90;4.05;;;;;;;14.14;39.84;100046.59;5035159;28;20034;-77
2022/03/13 10:48:55;;;;;;;11.00;3.70;;;;;;;14.16;38.83;100049.84;5035434;28;20490;-77
2022/03/13 10:51:35;;;;;;;10.18;3.90;;;;;;;14.14;39.11;100040.34;5035490;28;20040;-77
2022/03/13 10:54:02;;;;;;;9.63;4.03;;;;;;;14.22;38.83;100029.94;5035271;28;20060;-76
2022/03/13 10:56:28;;;;;;;9.20;3.97;;;;;;;14.38;38.95;100032.97;5034935;28;20029;-76
2022/03/13 10:58:53;;;;;;;10.43;3.78;;;;;;;14.35;38.88;100041.59;5035329;28;20036;-76
2022/03/13 11:01:21;;;;;;;10.40;3.85;;;;;;;14.37;39.46;100042.16;5035033;28;20065;-77
2022/03/13 11:03:55;;;;;;;9.63;4.25;;;;;;;14.42;38.87;100032.31;5033618;28;20057;-76
2022/03/13 11:06:26;;;;;;;9.18;3.60;;;;;;;14.66;38.44;100030.34;5033161;28;20049;-75
2022/03/13 11:08:55;;;;;;;9.57;3.95;;;;;;;14.69;38.66;100020.91;5035289;28;20033;-76
2022/03/13 11:11:32;;;;;;;7.20;3.38;;;;;;;14.85;37.88;100022.84;5035275;28;20124;-76
2022/03/13 11:14:02;;;;;;;9.43;3.90;;;;;;;14.76;38.12;100035.16;5034938;28;20041;-76
2022/03/13 11:16:29;;;;;;;8.00;3.30;;;;;;;14.88;38.92;100025.88;5034840;28;20037;-75
2022/03/13 11:18:56;;;;;;;8.85;3.63;;;;;;;14.97;38.46;100034.47;5035133;28;20038;-76
2022/03/13 11:21:22;;;;;;;11.40;4.15;;;;;;;14.87;38.00;100021.53;5034483;28;20039;-76
2022/03/13 11:23:49;;;;;;;8.40;3.50;;;;;;;14.87;38.07;100023.41;5033584;28;20116;-76
2022/03/13 11:26:19;;;;;;;8.57;3.30;;;;;;;14.90;37.89;100020.22;5034225;28;20030;-76
2022/03/13 11:28:49;;;;;;;8.43;3.60;;;;;;;15.09;37.34;100026.25;5034513;28;20091;-79